Latest Coastal Weather Observations for Cairns

IDQ60701

Issued at 9:41 am EST Sunday 19 April 2015 (issued every 10 minutes, with the page automatically refreshed every 10 minutes)

About coastal observations | Map of coastal stations | Coastal observations for QLD | Marine services | Other Formats
Station Details ID: 031011 Name: CAIRNS AERO Lat: -16.87 Lon: 145.75 Height: 2.22 m
Data from the previous 72 hours. | See also: Recent months at Cairns
Date/Time
EST
Temp

°C
Wind Pressure Rain
since 9am
mm
Weather Cloud Vis
km
Sea
Height
m
Swell
Dir
 
Speed
knots
Gust
knots
hPa Trend Height
m
Period
s
Dir
19/09:30am 27.4 SSE 10 14 1016.2 - 0.0 - Partly cloudy 10 - - - -
19/08:30am 26.8 S 10 15 1015.3 - 16.4 - Partly cloudy 10 - - - -
19/08:00am 26.0 SSE 9 13 1014.9 - 16.4 - Mostly clear 10 - - - -
19/07:30am 25.5 S 11 17 1014.7 - 16.4 - Mostly clear 10 - - - -
19/07:00am 24.6 S 12 17 1014.2 - 16.4 - Mostly clear 10 - - - -
19/06:30am 24.9 S 9 14 1013.7 - 16.4 - Mostly clear 10 - - - -
19/06:00am 25.3 S 9 15 1013.3 - 16.4 - Cloudy 10 - - - -
19/05:30am 24.4 S 10 17 1013.2 - 16.4 - Mostly clear 10 - - - -
19/05:00am 24.8 S 11 16 1012.9 - 16.2 - Mostly clear 10 - - - -
19/04:30am 24.6 S 12 18 1012.7 - 16.2 - Mostly clear 10 - - - -
19/04:00am 24.4 S 11 16 1012.9 - 16.2 - Mostly clear 10 - - - -
19/03:30am 24.9 S 8 13 1012.9 - 16.2 - Mostly clear 10 - - - -
19/03:15am 24.4 S 7 10 1013.0 - 16.2 - Mostly clear 10 - - - -
19/03:00am 24.3 E 8 10 1013.4 - 15.2 - Cloudy 5 - - - -
19/02:30am 25.0 S 8 13 1013.3 - 11.0 - Mostly clear 10 - - - -
19/02:00am 24.7 SSE 9 15 1013.7 - 11.0 Showers Mostly clear 6 - - - -
19/01:30am 25.1 S 11 16 1014.1 - 10.8 - Mostly clear 10 - - - -
19/01:00am 25.2 S 9 14 1014.4 - 10.8 - Mostly clear 10 - - - -
19/12:30am 25.0 S 11 16 1014.7 - 10.8 - Mostly clear 10 - - - -
19/12:15am 24.9 S 9 13 1014.9 - 10.8 Showers Mostly clear 10 - - - -
19/12:00am 25.0 S 8 10 1014.8 - 10.8 - Cloudy 5 - - - -
 
Date/Time
EST
Temp

°C
Wind Pressure Rain
since 9am
mm
Weather Cloud Vis
km
Sea
Height
m
Swell
Dir
 
Speed
knots
Gust
knots
hPa Trend Height
m
Period
s
Dir
18/11:30pm 25.2 S 10 15 1014.8 - 10.8 - Mostly clear 5 - - - -
18/11:00pm 25.3 S 10 17 1014.9 - 10.8 - Mostly clear 10 - - - -
18/10:30pm 25.1 S 10 15 1015.0 - 10.6 - Mostly clear 10 - - - -
18/10:00pm 25.2 S 10 15 1015.1 - 10.6 Showers Mostly clear 10 - - - -
18/09:30pm 25.2 S 11 16 1015.1 - 10.6 - Mostly clear 10 - - - -
18/09:00pm 24.9 S 11 16 1014.9 - 10.6 - Partly cloudy 10 - - - -
18/08:30pm 24.8 S 9 14 1015.2 - 8.4 Showers Mostly clear 4 - - - -
18/08:20pm 25.0 S 10 16 1014.9 - 8.2 - Mostly clear 10 - - - -
18/08:00pm 24.9 S 9 14 1014.8 - 8.0 Showers Mostly clear 6 - - - -
18/07:35pm 25.0 S 8 11 1014.5 - 8.0 - Mostly clear 9 - - - -
18/07:15pm 24.3 S 8 16 1014.5 - 7.4 Showers Mostly clear 8 - - - -
18/07:00pm 24.3 S 11 15 1014.2 - 6.8 Drizzle Mostly clear 9 - - - -
18/06:30pm 24.7 S 10 16 1013.8 - 5.6 Showers Mostly clear 6 - - - -
18/06:00pm 25.0 S 10 14 1013.8 - 5.4 - Cloudy 10 - - - -
18/05:30pm 24.8 S 9 13 1013.5 - 5.4 Showers Mostly clear 10 - - - -
18/05:00pm 25.3 SSE 8 17 1013.0 - 5.4 Showers Mostly clear 8 - - - -
18/04:30pm 25.8 SSE 7 9 1012.7 - 4.8 Showers Partly cloudy 7 - - - -
18/04:00pm 26.8 SSE 10 15 1012.4 - 4.6 Showers Partly cloudy 6 - - - -
18/03:30pm 26.0 SSE 13 20 1012.5 - 4.6 Showers Partly cloudy 10 - - - -
18/03:14pm 27.9 S 9 14 1012.4 - 3.2 Showers Mostly clear 6 - - - -
18/03:00pm 27.4 S 9 14 1012.2 F 3.2 Distant precip. Mostly cloudy 15 - - - -
18/02:30pm 26.5 S 9 15 1012.9 - 3.2 - Partly cloudy 10 - - - -
18/02:00pm 25.4 S 11 17 1013.2 - 3.2 Showers Mostly clear 10 - - - -
18/01:30pm 25.0 S 12 20 1013.7 - 3.2 - Mostly clear 10 - - - -
18/01:18pm 24.6 SSE 14 20 1014.0 - 3.2 Showers Mostly clear 9 - - - -
18/01:00pm 26.9 SSE 11 14 1014.0 - 2.8 Showers Mostly clear 6 - - - -
18/12:30pm 26.8 S 10 14 1014.0 - 2.8 - Mostly clear 10 - - - -
18/12:00pm 25.5 SSE 7 10 1014.4 - 2.8 - Cloudy 7 - - - -
18/11:57am 25.9 S 7 10 1014.6 - 2.4 Showers Mostly clear 9 - - - -
18/11:30am 25.9 S 9 14 1015.1 - 1.4 Showers Mostly clear 6 - - - -
18/11:24am 26.7 S 8 13 1015.1 - 1.2 Showers Mostly clear 6 - - - -
18/11:00am 26.2 S 8 11 1015.4 - 1.2 Showers Mostly clear 9 - - - -
18/10:30am 26.1 S 10 15 1015.6 - 0.8 Showers Mostly clear 7 - - - -
18/10:00am 25.7 S 10 16 1015.9 - 0.8 - Mostly clear 10 - - - -
18/09:30am 24.6 SSE 9 15 1015.8 - 0.8 - Mostly clear 10 - - - -
18/09:12am 24.4 S 8 12 1015.4 - 0.6 - Mostly clear 9 - - - -
18/09:00am 23.7 S 9 15 1015.2 R 4.4 Showers Cloudy 5 - - - -
18/08:50am 25.1 S 8 14 1015.1 - 2.4 Showers Mostly clear 5 - - - -
18/08:42am 25.1 SSW 8 14 1014.9 - 2.4 Showers Mostly clear 6 - - - -
18/08:30am 25.0 S 8 14 1014.8 - 2.4 Showers Mostly clear 10 - - - -
18/08:22am 24.3 S 9 16 1014.8 - 2.4 - Mostly clear 10 - - - -
18/08:12am 24.2 S 11 17 1014.4 - 2.4 Showers Mostly clear 6 - - - -
18/08:00am 24.4 S 11 17 1014.4 - 1.8 Showers Mostly clear 10 - - - -
18/07:30am 23.7 S 12 17 1014.2 - 1.8 Showers Mostly clear 10 - - - -
18/07:00am 23.5 S 11 15 1013.8 - 1.8 - Mostly clear 10 - - - -
18/06:30am 23.5 SSE 10 14 1013.6 - 1.8 - Mostly clear 10 - - - -
18/06:00am 23.7 S 10 15 1013.1 - 1.6 - Cloudy 10 - - - -
18/05:30am 23.6 S 10 15 1012.9 - 1.4 Showers Mostly clear 8 - - - -
18/05:00am 23.5 S 13 19 1013.0 - 1.4 - Mostly clear 10 - - - -
18/04:30am 23.5 SSE 9 14 1013.1 - 1.2 Showers Mostly clear 7 - - - -
18/04:00am 23.8 SE 11 12 1012.9 - 0.6 Showers Mostly clear 6 - - - -
18/03:30am 24.3 S 9 14 1012.7 - 0.4 - Mostly clear 10 - - - -
18/03:00am 24.7 S 9 14 1013.0 - 0.4 - Cloudy 9 - - - -
18/02:30am 24.7 SSE 8 16 1013.0 - 0.4 - Mostly clear 10 - - - -
18/02:00am 24.6 S 9 16 1013.1 - 0.4 - Mostly clear 10 - - - -
18/01:30am 24.5 SSE 11 16 1013.8 - 0.4 Showers Mostly clear 10 - - - -
18/01:00am 24.9 S 9 14 1014.3 - 0.4 - Mostly clear 10 - - - -
18/12:30am 25.1 S 9 15 1014.6 - 0.4 - Mostly clear 10 - - - -
18/12:00am 24.6 SSE 7 10 1014.7 - 0.4 - Cloudy 10 - - - -
 
Date/Time
EST
Temp

°C
Wind Pressure Rain
since 9am
mm
Weather Cloud Vis
km
Sea
Height
m
Swell
Dir
 
Speed
knots
Gust
knots
hPa Trend Height
m
Period
s
Dir
17/11:30pm 24.8 S 10 16 1014.9 - 0.4 - Mostly clear 10 - - - -
17/11:00pm 24.9 S 10 15 1015.2 - 0.4 - Mostly clear 10 - - - -
17/10:30pm 24.9 S 10 15 1015.3 - 0.4 - Mostly clear 10 - - - -
17/10:00pm 24.7 S 10 14 1015.4 - 0.4 - Mostly clear 10 - - - -
17/09:30pm 24.9 S 10 15 1015.2 - 0.4 Showers Mostly clear 10 - - - -
17/09:00pm 24.5 S 9 14 1014.9 - 0.4 - Cloudy 10 - - - -
17/08:30pm 24.2 S 6 10 1014.8 - 0.4 - Mostly clear 10 - - - -
17/08:00pm 24.2 SSE 10 15 1014.6 - 0.4 - Mostly clear 10 - - - -
17/07:30pm 25.4 S 9 14 1014.1 - 0.0 - Partly cloudy 10 - - - -
17/07:00pm 24.8 SSE 10 16 1013.6 - 0.0 Showers Partly cloudy 10 - - - -
17/06:30pm 25.8 S 9 16 1013.4 - 0.0 - Mostly clear 10 - - - -
17/06:00pm 26.2 SSE 10 16 1013.1 - 0.0 - Cloudy 10 - - - -
17/05:30pm 26.4 SSE 10 14 1013.2 - 0.0 Showers Partly cloudy 10 - - - -
17/05:00pm 26.9 SSE 9 14 1013.1 - 0.0 - Partly cloudy 10 - - - -
17/04:30pm 27.3 SE 12 16 1012.9 - 0.0 - Mostly clear 10 - - - -
17/04:00pm 26.7 SE 15 20 1012.8 - 0.0 - Mostly clear 10 - - - -
17/03:30pm 27.3 SE 15 21 1012.8 - 0.0 - Partly cloudy 10 - - - -
17/03:00pm 27.2 SSE 11 18 1012.9 R 0.0 Distant precip. Mostly cloudy 20 - - - -
17/02:30pm 27.3 SSE 10 15 1013.2 - 0.0 - Partly cloudy 10 - - - -
17/02:00pm 26.4 SE 12 16 1013.6 - 0.0 - Mostly clear 10 - - - -
17/01:30pm 25.5 ESE 9 13 1014.0 - 0.0 Showers Mostly clear 10 - - - -
17/01:00pm 25.8 SSE 14 20 1014.3 - 0.0 - Partly cloudy 10 - - - -
17/12:30pm 28.0 SE 18 22 1014.1 - 0.0 - Partly cloudy 7 - - - -
17/12:00pm 28.6 SE 19 24 1014.5 - 0.0 - Cloudy 10 - - - -
17/11:30am 28.8 SE 17 24 1015.1 - 0.0 - Mostly clear 10 - - - -
17/11:00am 28.3 SE 18 21 1015.7 - 0.0 - Mostly clear 10 - - - -
17/10:30am 28.1 SE 19 24 1016.2 - 0.0 - Mostly clear 10 - - - -
17/10:00am 27.4 SSE 12 17 1016.3 - 0.0 - Mostly clear 10 - - - -
17/09:30am 26.8 S 11 16 1016.5 - 0.0 - Partly cloudy 10 - - - -
17/09:00am 26.6 S 10 17 1016.3 F 3.8 Fine Mostly clear 30 - - - -
17/08:30am 25.1 S 11 14 1016.5 - 3.6 - Partly cloudy 10 - - - -
17/08:00am 23.7 ESE 7 13 1016.6 - 3.4 - Partly cloudy 10 - - - -
17/07:30am 24.5 S 9 15 1016.0 - 3.2 - Mostly clear 10 - - - -
17/07:00am 24.4 SSE 10 15 1015.6 - 3.2 - Mostly clear 10 - - - -
17/06:30am 24.0 SSE 10 15 1015.3 - 3.2 - Mostly clear 10 - - - -
17/06:00am 23.8 SSE 10 14 1014.9 - 3.2 - Mostly clear 10 - - - -
17/05:30am 23.8 SSE 10 14 1014.8 - 3.2 - Mostly clear 10 - - - -
17/05:00am 24.2 S 10 16 1014.4 - 3.2 - Mostly clear 10 - - - -
17/04:30am 24.0 S 10 16 1014.3 - 3.2 - Mostly clear 10 - - - -
17/04:00am 24.3 S 11 17 1014.4 - 3.2 - Mostly clear 10 - - - -
17/03:30am 24.1 S 11 16 1014.4 - 3.2 - Mostly clear 10 - - - -
17/03:00am 23.9 SSE 10 17 1014.5 - 3.2 - Cloudy 10 - - - -
17/02:30am 23.5 S 11 16 1014.9 - 3.2 Showers Mostly clear 10 - - - -
17/02:00am 23.6 S 11 19 1015.4 - 3.2 - Mostly clear 10 - - - -
17/01:30am 23.7 S 11 16 1015.8 - 3.2 - Mostly clear 10 - - - -
17/01:00am 23.9 S 10 16 1016.4 - 3.0 - Mostly clear 10 - - - -
17/12:30am 23.4 S 11 16 1016.7 - 3.0 - Mostly clear 10 - - - -
17/12:00am 23.8 S 9 15 1016.9 - 3.0 - Partly cloudy 10 - - - -
 
Date/Time
EST
Temp

°C
Wind Pressure Rain
since 9am
mm
Weather Cloud Vis
km
Sea
Height
m
Swell
Dir
 
Speed
knots
Gust
knots
hPa Trend Height
m
Period
s
Dir
16/11:30pm 23.0 S 11 16 1017.4 - 3.0 Showers Mostly clear 10 - - - -
16/11:00pm 24.1 S 12 18 1017.5 - 2.8 - Mostly clear 10 - - - -
16/10:30pm 23.5 S 10 16 1017.9 - 2.8 - Mostly clear 10 - - - -
16/10:00pm 24.5 S 8 12 1017.7 - 1.6 Showers Mostly clear 10 - - - -
16/09:30pm 24.1 S 8 13 1018.0 - 0.8 Showers Mostly clear 10 - - - -
16/09:00pm 24.2 SSE 7 9 1017.7 - 0.6 - Mostly cloudy 10 - - - -
16/08:30pm 24.5 SSE 11 14 1017.5 - 0.6 - Mostly clear 10 - - - -
16/08:00pm 24.5 SSE 10 15 1017.1 - 0.6 - Mostly clear 10 - - - -
16/07:30pm 24.5 SSE 7 10 1016.7 - 0.6 - Mostly clear 10 - - - -
16/07:00pm 23.8 SSE 8 10 1016.7 - 0.6 - Partly cloudy 10 - - - -
16/06:30pm 23.7 SE 18 28 1016.5 - 0.6 - Mostly clear 10 - - - -
16/06:23pm 25.3 SE 16 26 1016.4 - 0.0 Showers Mostly clear 4 - - - -
16/06:00pm 26.7 SE 16 20 1016.0 - 0.0 - Partly cloudy 10 - - - -
16/05:30pm 27.3 SE 17 21 1015.8 - 0.0 - Partly cloudy 10 - - - -
16/05:00pm 27.8 SE 17 21 1015.6 - 0.0 - Partly cloudy 10 - - - -
16/04:30pm 28.0 SE 18 25 1015.3 - 0.0 - Partly cloudy 10 - - - -
16/04:00pm 28.8 ESE 19 25 1015.2 - 0.0 - Partly cloudy 10 - - - -
16/03:30pm 29.1 SE 19 24 1015.1 - 0.0 - Partly cloudy 10 - - - -
16/03:00pm 29.1 ESE 20 25 1015.0 F 0.0 Fine Partly cloudy 30 - - - -
16/02:30pm 29.2 SE 20 25 1015.3 - 0.0 - Partly cloudy 10 - - - -
16/02:00pm 30.0 SE 19 26 1015.4 - 0.0 - Partly cloudy 10 - - - -
16/01:30pm 29.9 SE 17 22 1015.9 - 0.0 - Partly cloudy 10 - - - -
16/01:00pm 30.2 SE 19 24 1016.2 - 0.0 - Partly cloudy 10 - - - -
16/12:30pm 29.8 SE 19 23 1016.5 - 0.0 - Partly cloudy 10 - - - -
16/12:00pm 29.0 SE 20 26 1016.9 - 0.0 - Mostly clear 10 - - - -
16/11:30am 29.3 SE 19 26 1017.5 - 0.0 - Partly cloudy 10 - - - -
16/11:10am 28.5 SE 18 28 1017.8 - 0.0 - Mostly clear 10 - - - -
16/11:00am 28.9 ESE 18 24 1018.0 - 0.0 - Partly cloudy 10 - - - -
16/10:55am 28.4 SE 18 28 1018.1 - 0.0 - Partly cloudy 10 - - - -
16/10:30am 28.3 SE 19 26 1018.3 - 0.0 - Partly cloudy 10 - - - -
16/10:00am 29.1 SE 16 21 1018.6 - 0.0 - Partly cloudy 10 - - - -

Other Formats:

Comma delimited format used in spreadsheet applications
http://www.bom.gov.au/fwo/IDQ60701/IDQ60701.94287.axf

JavaScript Object Notation format (JSON) in row-major order
http://www.bom.gov.au/fwo/IDQ60701/IDQ60701.94287.json